Time;durP1;ratioP1;P1;durP2;ratioP2;P2;SDS_P1;SDS_P2;PMS_P1;PMS_P2;Temp;Humidity;BMP_temperature;BMP_pressure;BME280_temperature;BME280_humidity;BME280_pressure;Samples;Min_cycle;Max_cycle;Signal;HPM_P1;HPM_P2
2023/06/02 00:02:08;;;;;;;;;;;;;;;11.40;73.17;102207.34;5022119;28;19917;-55
2023/06/02 00:04:35;;;;;;;;;;;;;;;11.38;74.01;102207.28;5017732;28;19969;-54
2023/06/02 00:07:03;;;;;;;;;;;;;;;11.40;72.50;102203.09;5023818;28;19917;-55
2023/06/02 00:09:28;;;;;;;;;;;;;;;11.36;72.80;102203.78;5025138;28;20000;-56
2023/06/02 00:11:54;;;;;;;;;;;;;;;11.26;72.85;102209.31;5022192;28;20024;-55
2023/06/02 00:14:19;;;;;;;;;;;;;;;11.24;72.35;102206.66;5018254;28;20011;-57
2023/06/02 00:16:45;;;;;;;;;;;;;;;11.22;72.39;102203.16;5016663;28;19924;-55
2023/06/02 00:19:11;;;;;;;;;;;;;;;11.18;72.22;102197.78;5016018;28;19914;-53
2023/06/02 00:21:37;;;;;;;;;;;;;;;11.17;72.65;102204.63;5016297;28;19922;-55
2023/06/02 00:24:02;;;;;;;;;;;;;;;11.20;72.15;102199.59;5027232;28;19929;-54
2023/06/02 00:26:28;;;;;;;;;;;;;;;11.17;72.09;102188.28;5023849;28;19951;-53
2023/06/02 00:28:55;;;;;;;;;;;;;;;11.15;72.33;102195.03;5018485;28;19918;-54
2023/06/02 00:31:20;;;;;;;;;;;;;;;11.12;71.64;102193.22;5029596;28;19921;-55
2023/06/02 00:33:46;;;;;;;;;;;;;;;11.12;71.65;102194.91;5028357;28;19919;-54
2023/06/02 00:36:11;;;;;;;;;;;;;;;11.10;71.81;102200.00;5026934;28;20453;-54
2023/06/02 00:38:36;;;;;;;;;;;;;;;11.10;71.61;102200.00;5028340;28;20280;-54
2023/06/02 00:41:02;;;;;;;;;;;;;;;11.07;71.07;102197.25;5026167;28;20395;-57
2023/06/02 00:43:27;;;;;;;;;;;;;;;11.00;71.61;102192.66;5024781;28;19948;-55
2023/06/02 00:45:52;;;;;;;;;;;;;;;10.99;71.29;102201.19;5014598;28;20328;-55
2023/06/02 00:48:17;;;;;;;;;;;;;;;10.97;71.07;102200.19;5017759;28;19921;-54
2023/06/02 00:50:43;;;;;;;;;;;;;;;10.96;71.18;102199.31;5013743;28;19922;-54
2023/06/02 00:53:09;;;;;;;;;;;;;;;10.91;70.68;102194.75;5013708;28;19979;-55
2023/06/02 00:55:35;;;;;;;;;;;;;;;10.91;70.56;102194.75;5018140;28;19963;-54
2023/06/02 00:58:03;;;;;;;;;;;;;;;10.83;70.53;102190.94;5018892;28;19922;-55
2023/06/02 01:00:33;;;;;;;;;;;;;;;10.80;70.58;102198.50;5022756;28;19921;-56
2023/06/02 01:02:59;;;;;;;;;;;;;;;10.78;71.03;102202.72;5017222;28;19914;-55
2023/06/02 01:05:25;;;;;;;;;;;;;;;10.79;70.80;102195.06;5019114;28;20284;-55
2023/06/02 01:07:55;;;;;;;;;;;;;;;10.81;71.23;102197.72;5015005;28;20364;-56
2023/06/02 01:10:20;;;;;;;;;;;;;;;10.79;71.27;102200.19;5016188;28;19913;-56
2023/06/02 01:12:45;;;;;;;;;;;;;;;10.78;71.03;102197.56;5012242;28;19925;-56
2023/06/02 01:15:11;;;;;;;;;;;;;;;10.81;70.95;102197.72;5017892;28;19921;-54
2023/06/02 01:17:37;;;;;;;;;;;;;;;10.82;70.86;102200.38;5017973;28;19917;-57
2023/06/02 01:20:05;;;;;;;;;;;;;;;10.78;71.25;102195.88;5018365;28;20292;-56
2023/06/02 01:22:34;;;;;;;;;;;;;;;10.78;71.02;102198.44;5015588;28;19917;-56
2023/06/02 01:25:00;;;;;;;;;;;;;;;10.74;71.63;102197.44;5019622;28;20029;-56
2023/06/02 01:27:25;;;;;;;;;;;;;;;10.78;71.60;102193.28;5022739;28;20484;-55
2023/06/02 01:29:52;;;;;;;;;;;;;;;10.81;71.11;102195.16;5018306;28;20280;-55
2023/06/02 01:32:20;;;;;;;;;;;;;;;10.79;71.53;102194.19;5019208;28;19947;-57
2023/06/02 01:35:18;;;;;;;;;;;;;;;10.80;71.26;102196.84;5018617;28;19913;-55
2023/06/02 01:37:46;;;;;;;;;;;;;;;10.81;71.61;102190.00;5013744;28;19917;-56
2023/06/02 01:40:12;;;;;;;;;;;;;;;10.84;71.04;102191.00;5027793;28;19924;-55
2023/06/02 01:42:37;;;;;;;;;;;;;;;10.79;71.61;102187.34;5026926;28;19913;-56
2023/06/02 01:45:03;;;;;;;;;;;;;;;10.81;71.35;102183.16;5024613;28;19928;-56
2023/06/02 01:47:28;;;;;;;;;;;;;;;10.80;71.89;102183.06;5014480;28;19922;-55
2023/06/02 01:49:54;;;;;;;;;;;;;;;10.83;71.57;102183.22;5017770;28;19924;-57
2023/06/02 01:52:19;;;;;;;;;;;;;;;10.82;71.48;102178.91;5014261;28;19968;-56
2023/06/02 01:54:46;;;;;;;;;;;;;;;10.83;71.59;102180.66;5012329;28;20426;-55
2023/06/02 01:57:11;;;;;;;;;;;;;;;10.86;71.97;102184.28;5013456;28;20013;-56
2023/06/02 01:59:36;;;;;;;;;;;;;;;10.90;71.64;102185.28;5011829;28;20008;-56
2023/06/02 02:02:02;;;;;;;;;;;;;;;10.92;70.90;102181.09;5022005;28;19957;-57
2023/06/02 02:04:27;;;;;;;;;;;;;;;10.88;71.65;102190.38;5013467;28;19917;-55
2023/06/02 02:06:52;;;;;;;;;;;;;;;10.88;71.49;102189.50;5020230;28;20360;-55
2023/06/02 02:09:18;;;;;;;;;;;;;;;10.90;72.37;102185.28;5018978;28;20355;-56
2023/06/02 02:11:43;;;;;;;;;;;;;;;10.94;71.73;102180.38;5015942;28;19929;-56
2023/06/02 02:14:08;;;;;;;;;;;;;;;11.03;71.35;102185.06;5017821;28;20016;-57
2023/06/02 02:16:35;;;;;;;;;;;;;;;10.95;71.60;102186.38;5019915;28;19917;-55
2023/06/02 02:19:00;;;;;;;;;;;;;;;10.93;71.90;102181.19;5014888;28;20376;-56
2023/06/02 02:21:28;;;;;;;;;;;;;;;10.93;72.02;102193.16;5017177;28;19924;-56
2023/06/02 02:23:53;;;;;;;;;;;;;;;10.95;72.07;102186.38;5014533;28;20148;-56
2023/06/02 02:26:19;;;;;;;;;;;;;;;10.95;72.82;102182.13;5018415;28;19921;-56
2023/06/02 02:28:45;;;;;;;;;;;;;;;10.92;72.52;102188.81;5017948;28;19921;-57
2023/06/02 02:31:11;;;;;;;;;;;;;;;10.93;72.75;102183.75;5014203;28;19913;-56
2023/06/02 02:33:36;;;;;;;;;;;;;;;10.94;73.00;102182.06;5011274;28;19914;-56
2023/06/02 02:36:02;;;;;;;;;;;;;;;10.94;73.52;102185.50;5011290;28;20408;-54
2023/06/02 02:38:27;;;;;;;;;;;;;;;10.98;72.87;102181.38;5022918;28;19960;-56
2023/06/02 02:40:52;;;;;;;;;;;;;;;11.02;71.99;102184.16;5018582;28;19925;-55
2023/06/02 02:43:18;;;;;;;;;;;;;;;10.96;72.28;102181.31;5020267;28;19917;-55
2023/06/02 02:45:43;;;;;;;;;;;;;;;10.97;72.29;102184.75;5017188;28;19932;-56
2023/06/02 02:48:08;;;;;;;;;;;;;;;10.91;72.57;102180.19;5017967;28;20004;-56
2023/06/02 02:50:33;;;;;;;;;;;;;;;10.94;72.37;102184.63;5018252;28;19925;-54
2023/06/02 02:52:59;;;;;;;;;;;;;;;10.87;72.17;102177.44;5017245;28;20418;-55
2023/06/02 02:55:25;;;;;;;;;;;;;;;10.84;73.10;102174.69;5017134;28;20024;-56
2023/06/02 02:57:50;;;;;;;;;;;;;;;10.83;72.64;102178.97;5013986;28;20020;-55
2023/06/02 03:00:16;;;;;;;;;;;;;;;10.80;73.22;102177.91;5014885;28;19917;-54
2023/06/02 03:02:41;;;;;;;;;;;;;;;10.79;72.93;102174.47;5024148;28;19925;-54
2023/06/02 03:05:06;;;;;;;;;;;;;;;10.78;72.75;102190.72;5015540;28;20000;-46
2023/06/02 03:07:34;;;;;;;;;;;;;;;10.76;72.78;102184.63;5021288;28;20356;-44
2023/06/02 03:09:59;;;;;;;;;;;;;;;10.72;72.45;102186.16;5015887;28;19913;-47
2023/06/02 03:12:24;;;;;;;;;;;;;;;10.69;72.98;102182.56;5021743;28;19926;-44
2023/06/02 03:14:50;;;;;;;;;;;;;;;10.64;72.66;102189.19;5015778;28;19928;-44
2023/06/02 03:17:17;;;;;;;;;;;;;;;10.62;72.84;102194.25;5014358;28;19925;-46
2023/06/02 03:19:43;;;;;;;;;;;;;;;10.67;72.46;102203.06;5016124;28;19924;-44
2023/06/02 03:22:08;;;;;;;;;;;;;;;10.66;72.57;102200.41;5012975;28;19914;-45
2023/06/02 03:24:33;;;;;;;;;;;;;;;10.68;72.06;102201.41;5018255;28;20354;-44
2023/06/02 03:26:59;;;;;;;;;;;;;;;10.64;72.31;102195.22;5016764;28;19980;-47
2023/06/02 03:29:24;;;;;;;;;;;;;;;10.60;72.57;102195.84;5017406;28;19920;-46
2023/06/02 03:31:51;;;;;;;;;;;;;;;10.62;72.14;102196.84;5020766;28;19928;-44
2023/06/02 03:34:16;;;;;;;;;;;;;;;10.64;72.79;102196.91;5021709;28;19996;-44
2023/06/02 03:36:42;;;;;;;;;;;;;;;10.64;72.32;102199.47;5021303;28;20016;-45
2023/06/02 03:39:07;;;;;;;;;;;;;;;10.59;72.34;102201.81;5022410;28;19932;-46
2023/06/02 03:41:34;;;;;;;;;;;;;;;10.57;72.53;102198.28;5016394;28;19921;-44
2023/06/02 03:44:00;;;;;;;;;;;;;;;10.57;72.05;102203.44;5019845;28;19928;-45
2023/06/02 03:46:25;;;;;;;;;;;;;;;10.51;72.23;102208.28;5020634;28;20024;-45
2023/06/02 03:48:50;;;;;;;;;;;;;;;10.48;71.71;102201.28;5022806;28;20015;-45
2023/06/02 03:51:16;;;;;;;;;;;;;;;10.41;71.92;102212.06;5020674;28;19940;-46
2023/06/02 03:53:41;;;;;;;;;;;;;;;10.43;71.38;102207.00;5020312;28;19917;-44
2023/06/02 03:56:06;;;;;;;;;;;;;;;10.34;71.34;102212.56;5021144;28;19956;-43
2023/06/02 03:58:31;;;;;;;;;;;;;;;10.28;71.17;102203.66;5021395;28;19917;-44
2023/06/02 04:00:58;;;;;;;;;;;;;;;10.24;71.84;102200.03;5020373;28;19964;-45
2023/06/02 04:03:23;;;;;;;;;;;;;;;10.24;71.47;102214.59;5019138;28;19944;-49
2023/06/02 04:05:48;;;;;;;;;;;;;;;10.23;71.62;102213.72;5016439;28;19921;-44
2023/06/02 04:08:14;;;;;;;;;;;;;;;10.23;71.55;102216.28;5016561;28;19932;-44
2023/06/02 04:10:41;;;;;;;;;;;;;;;10.30;71.34;102217.47;5018449;28;20435;-44
2023/06/02 04:13:06;;;;;;;;;;;;;;;10.27;71.40;102220.78;5019964;28;19991;-44
2023/06/02 04:15:31;;;;;;;;;;;;;;;10.26;71.38;102224.16;5018503;28;19921;-44
2023/06/02 04:17:57;;;;;;;;;;;;;;;10.23;71.63;102220.50;5016020;28;20384;-44
2023/06/02 04:20:22;;;;;;;;;;;;;;;10.25;72.01;102224.94;5012588;28;19963;-43
2023/06/02 04:22:48;;;;;;;;;;;;;;;10.30;71.82;102225.19;5020116;28;19921;-44
2023/06/02 04:25:13;;;;;;;;;;;;;;;10.29;71.72;102224.31;5024612;28;19983;-43
2023/06/02 04:27:38;;;;;;;;;;;;;;;10.27;71.66;102223.34;5018525;28;19917;-44
2023/06/02 04:30:04;;;;;;;;;;;;;;;10.24;72.15;102219.72;5017087;28;20450;-45
2023/06/02 04:32:30;;;;;;;;;;;;;;;10.25;71.60;102222.38;5015556;28;20356;-45
2023/06/02 04:34:55;;;;;;;;;;;;;;;10.22;72.08;102219.63;5014944;28;19917;-47
2023/06/02 04:37:21;;;;;;;;;;;;;;;10.24;72.03;102220.63;5013491;28;19971;-47
2023/06/02 04:39:49;;;;;;;;;;;;;;;10.27;71.94;102217.34;5012461;28;20003;-46
2023/06/02 04:42:14;;;;;;;;;;;;;;;10.30;72.35;102212.31;5015933;28;20299;-44
2023/06/02 04:44:40;;;;;;;;;;;;;;;10.33;71.95;102212.50;5016171;28;20028;-56
2023/06/02 04:47:05;;;;;;;;;;;;;;;10.37;72.17;102210.13;5022001;28;19913;-56
2023/06/02 04:49:31;;;;;;;;;;;;;;;10.45;71.58;102215.69;5018989;28;19914;-55
2023/06/02 04:51:56;;;;;;;;;;;;;;;10.42;71.67;102218.09;5021290;28;19975;-55
2023/06/02 04:54:21;;;;;;;;;;;;;;;10.41;71.54;102217.22;5018457;28;19917;-56
2023/06/02 04:56:46;;;;;;;;;;;;;;;10.43;71.20;102219.84;5019415;28;19925;-55
2023/06/02 04:59:12;;;;;;;;;;;;;;;10.46;70.62;102226.03;5019520;28;19921;-56
2023/06/02 05:01:37;;;;;;;;;;;;;;;10.42;70.89;102223.22;5019613;28;20384;-56
2023/06/02 05:04:03;;;;;;;;;;;;;;;10.38;70.74;102226.47;5021025;28;19976;-56
2023/06/02 05:06:30;;;;;;;;;;;;;;;10.38;70.67;102227.34;5021444;28;19924;-54
2023/06/02 05:08:55;;;;;;;;;;;;;;;10.35;70.81;102224.63;5017515;28;19929;-55
2023/06/02 05:11:20;;;;;;;;;;;;;;;10.38;71.33;102226.47;5014844;28;19918;-55
2023/06/02 05:13:46;;;;;;;;;;;;;;;10.41;71.03;102227.50;5014850;28;19928;-55
2023/06/02 05:16:12;;;;;;;;;;;;;;;10.42;71.13;102234.41;5019292;28;19921;-55
2023/06/02 05:18:37;;;;;;;;;;;;;;;10.44;71.61;102229.34;5015866;28;19918;-56
2023/06/02 05:21:02;;;;;;;;;;;;;;;10.47;71.12;102234.63;5015365;28;19971;-56
2023/06/02 05:23:28;;;;;;;;;;;;;;;10.52;70.63;102238.31;5017255;28;19925;-57
2023/06/02 05:25:53;;;;;;;;;;;;;;;10.51;70.61;102238.25;5023263;28;19925;-56
2023/06/02 05:28:18;;;;;;;;;;;;;;;10.52;70.92;102234.88;5014260;28;19925;-55
2023/06/02 05:30:43;;;;;;;;;;;;;;;10.51;70.98;102231.44;5011364;28;20301;-56
2023/06/02 05:33:09;;;;;;;;;;;;;;;10.47;71.09;102232.06;5020651;28;19917;-55
2023/06/02 05:35:34;;;;;;;;;;;;;;;10.54;70.69;102239.28;5016206;28;20014;-55
2023/06/02 05:37:59;;;;;;;;;;;;;;;10.53;70.79;102237.50;5017237;28;19971;-55
2023/06/02 05:40:25;;;;;;;;;;;;;;;10.52;70.72;102238.31;5013614;28;19917;-57
2023/06/02 05:42:50;;;;;;;;;;;;;;;10.55;70.34;102243.59;5013226;28;20382;-56
2023/06/02 05:45:15;;;;;;;;;;;;;;;10.57;70.70;102242.03;5014293;28;20020;-55
2023/06/02 05:47:41;;;;;;;;;;;;;;;10.60;70.52;102236.13;5011944;28;19976;-53
2023/06/02 05:50:06;;;;;;;;;;;;;;;10.64;70.07;102246.66;5013619;28;19921;-54
2023/06/02 05:52:31;;;;;;;;;;;;;;;10.60;70.05;102242.16;5018353;28;19924;-54
2023/06/02 05:54:56;;;;;;;;;;;;;;;10.68;69.70;102242.56;5021755;28;19928;-56
2023/06/02 05:57:22;;;;;;;;;;;;;;;10.65;69.62;102247.53;5022552;28;19944;-56
2023/06/02 05:59:47;;;;;;;;;;;;;;;10.54;69.57;102249.56;5022791;28;19956;-55
2023/06/02 06:02:12;;;;;;;;;;;;;;;10.54;69.84;102247.00;5020480;28;19928;-56
2023/06/02 06:04:38;;;;;;;;;;;;;;;10.56;70.02;102244.53;5020003;28;19917;-56
2023/06/02 06:07:03;;;;;;;;;;;;;;;10.60;69.86;102243.84;5020142;28;20346;-58
2023/06/02 06:09:29;;;;;;;;;;;;;;;10.63;69.87;102244.91;5020753;28;19913;-57
2023/06/02 06:11:54;;;;;;;;;;;;;;;10.58;70.12;102243.78;5012503;28;19932;-56
2023/06/02 06:14:20;;;;;;;;;;;;;;;10.64;70.01;102245.78;5016256;28;19924;-56
2023/06/02 06:16:45;;;;;;;;;;;;;;;10.70;69.16;102249.53;5015689;28;19987;-55
2023/06/02 06:19:10;;;;;;;;;;;;;;;10.72;69.41;102241.88;5017901;28;19914;-55
2023/06/02 06:21:36;;;;;;;;;;;;;;;10.79;69.21;102232.78;5018669;28;19917;-56
2023/06/02 06:24:02;;;;;;;;;;;;;;;10.84;69.30;102239.91;5023089;28;19948;-56
2023/06/02 06:26:27;;;;;;;;;;;;;;;10.94;68.70;102241.25;5020121;28;20013;-57
2023/06/02 06:28:53;;;;;;;;;;;;;;;10.96;68.42;102247.34;5017588;28;20292;-57
2023/06/02 06:31:18;;;;;;;;;;;;;;;10.94;68.13;102248.97;5023016;28;20000;-58
2023/06/02 06:33:43;;;;;;;;;;;;;;;10.86;68.81;102253.75;5019278;28;19922;-56
2023/06/02 06:36:09;;;;;;;;;;;;;;;10.87;68.37;102244.34;5012251;28;20037;-56
2023/06/02 06:38:34;;;;;;;;;;;;;;;10.94;68.46;102251.53;5016818;28;19921;-56
2023/06/02 06:41:00;;;;;;;;;;;;;;;10.95;68.39;102250.72;5013566;28;19968;-56
2023/06/02 06:43:25;;;;;;;;;;;;;;;11.10;68.21;102254.06;5016090;28;19917;-56
2023/06/02 06:45:50;;;;;;;;;;;;;;;11.05;68.17;102259.78;5016450;28;19929;-56
2023/06/02 06:48:15;;;;;;;;;;;;;;;11.02;68.30;102252.78;5016363;28;19956;-57
2023/06/02 06:50:41;;;;;;;;;;;;;;;11.09;68.02;102253.97;5016418;28;20265;-58
2023/06/02 06:53:08;;;;;;;;;;;;;;;11.12;67.69;102256.69;5017747;28;19917;-57
2023/06/02 06:55:33;;;;;;;;;;;;;;;11.16;67.74;102254.34;5022112;28;19914;-55
2023/06/02 06:57:58;;;;;;;;;;;;;;;11.24;67.71;102247.88;5023717;28;19917;-56
2023/06/02 07:00:24;;;;;;;;;;;;;;;11.30;67.45;102247.28;5019772;28;19924;-56
2023/06/02 07:02:49;;;;;;;;;;;;;;;11.36;67.14;102247.56;5015549;28;20359;-56
2023/06/02 07:05:15;;;;;;;;;;;;;;;11.49;67.43;102246.44;5019738;28;19926;-56
2023/06/02 07:07:40;;;;;;;;;;;;;;;11.52;66.67;102243.97;5018871;28;20292;-48
2023/06/02 07:10:06;;;;;;;;;;;;;;;11.53;66.64;102241.50;5016594;28;20289;-44
2023/06/02 07:12:31;;;;;;;;;;;;;;;11.58;66.99;102239.13;5018862;28;19953;-49
2023/06/02 07:14:56;;;;;;;;;;;;;;;11.57;66.52;102247.66;5019482;28;19921;-43
2023/06/02 07:17:22;;;;;;;;;;;;;;;11.66;66.67;102247.22;5017434;28;20011;-47
2023/06/02 07:19:47;;;;;;;;;;;;;;;11.79;65.50;102247.84;5019625;28;19980;-46
2023/06/02 07:22:12;;;;;;;;;;;;;;;11.69;65.32;102252.50;5016116;28;20372;-47
2023/06/02 07:24:37;;;;;;;;;;;;;;;11.70;66.33;102247.41;5011450;28;20352;-45
2023/06/02 07:27:03;;;;;;;;;;;;;;;11.82;65.47;102253.13;5022061;28;19953;-44
2023/06/02 07:29:29;;;;;;;;;;;;;;;11.91;65.94;102246.66;5022957;28;19944;-48
2023/06/02 07:31:54;;;;;;;;;;;;;;;12.06;65.18;102252.47;5016852;28;19967;-45
2023/06/02 07:34:19;;;;;;;;;;;;;;;12.15;64.51;102264.91;5016101;28;19964;-44
2023/06/02 07:36:47;;;;;;;;;;;;;;;12.17;64.58;102264.16;5015525;28;19921;-45
2023/06/02 07:39:13;;;;;;;;;;;;;;;12.14;64.12;102264.03;5014464;28;19968;-45
2023/06/02 07:41:38;;;;;;;;;;;;;;;12.23;63.96;102261.84;5016764;28;19917;-44
2023/06/02 07:44:03;;;;;;;;;;;;;;;12.43;63.55;102264.38;5016929;28;19940;-45
2023/06/02 07:46:28;;;;;;;;;;;;;;;12.57;63.97;102264.16;5024556;28;20009;-44
2023/06/02 07:48:54;;;;;;;;;;;;;;;12.66;63.22;102261.06;5016760;28;20390;-47
2023/06/02 07:51:19;;;;;;;;;;;;;;;12.68;63.22;102258.56;5019348;28;19921;-43
2023/06/02 07:53:44;;;;;;;;;;;;;;;12.73;62.64;102255.34;5020188;28;20003;-48
2023/06/02 07:56:10;;;;;;;;;;;;;;;12.82;62.06;102253.16;5019483;28;19979;-46
2023/06/02 07:58:35;;;;;;;;;;;;;;;12.73;62.99;102250.19;5020917;28;19965;-45
2023/06/02 08:01:01;;;;;;;;;;;;;;;12.76;62.97;102250.34;5021710;28;19918;-48
2023/06/02 08:03:26;;;;;;;;;;;;;;;12.85;61.38;102252.38;5019980;28;20368;-45
2023/06/02 08:05:51;;;;;;;;;;;;;;;12.87;62.19;102254.25;5023935;28;19929;-45
2023/06/02 08:08:16;;;;;;;;;;;;;;;12.92;61.32;102253.53;5018918;28;19921;-44
2023/06/02 08:10:42;;;;;;;;;;;;;;;12.88;61.09;102249.94;5021463;28;19917;-49
2023/06/02 08:13:08;;;;;;;;;;;;;;;12.94;60.24;102254.50;5019174;28;19926;-48
2023/06/02 08:15:34;;;;;;;;;;;;;;;12.97;60.59;102252.00;5025519;28;20004;-46
2023/06/02 08:17:59;;;;;;;;;;;;;;;13.01;59.48;102249.63;5017488;28;19921;-45
2023/06/02 08:20:24;;;;;;;;;;;;;;;13.01;60.52;102249.63;5019406;28;19968;-46
2023/06/02 08:22:50;;;;;;;;;;;;;;;13.04;59.25;102252.34;5020267;28;19928;-46
2023/06/02 08:25:16;;;;;;;;;;;;;;;13.03;59.61;102252.25;5021238;28;19921;-46
2023/06/02 08:27:44;;;;;;;;;;;;;;;13.02;59.71;102250.50;5017788;28;19918;-45
2023/06/02 08:30:11;;;;;;;;;;;;;;;13.22;59.79;102257.34;5013319;28;19925;-44
2023/06/02 08:32:36;;;;;;;;;;;;;;;13.30;59.38;102252.53;5027165;28;20379;-44
2023/06/02 08:35:01;;;;;;;;;;;;;;;13.34;58.17;102246.63;5016603;28;19917;-47
2023/06/02 08:37:27;;;;;;;;;;;;;;;13.64;58.99;102255.53;5018464;28;20012;-45
2023/06/02 08:39:52;;;;;;;;;;;;;;;14.25;58.14;102245.66;5015799;28;19971;-47
2023/06/02 08:42:18;;;;;;;;;;;;;;;14.53;57.60;102252.72;5012595;28;20360;-44
2023/06/02 08:44:44;;;;;;;;;;;;;;;14.52;55.30;102245.78;5016834;28;20107;-46
2023/06/02 08:47:11;;;;;;;;;;;;;;;14.55;55.56;102245.88;5018126;28;20347;-48
2023/06/02 08:49:38;;;;;;;;;;;;;;;14.51;56.75;102247.50;5014921;28;19921;-45
2023/06/02 08:52:05;;;;;;;;;;;;;;;14.46;57.05;102243.84;5016892;28;20331;-44
2023/06/02 08:54:31;;;;;;;;;;;;;;;14.66;56.95;102237.66;5013646;28;19913;-46
2023/06/02 08:56:58;;;;;;;;;;;;;;;14.80;57.40;102239.81;5013817;28;19991;-48
2023/06/02 08:59:25;;;;;;;;;;;;;;;14.99;57.08;102242.19;5017829;28;20265;-47
2023/06/02 09:01:51;;;;;;;;;;;;;;;15.10;54.29;102238.19;5019790;28;20266;-48
2023/06/02 09:04:17;;;;;;;;;;;;;;;15.17;55.50;102231.50;5020633;28;20386;-46
2023/06/02 09:06:43;;;;;;;;;;;;;;;14.98;56.31;102238.69;5016232;28;19972;-44
2023/06/02 09:09:09;;;;;;;;;;;;;;;14.79;55.10;102240.63;5020520;28;19917;-46
2023/06/02 09:11:34;;;;;;;;;;;;;;;14.58;54.76;102233.94;5018535;28;19952;-46
2023/06/02 09:13:59;;;;;;;;;;;;;;;14.60;56.16;102224.50;5018956;28;19924;-45
2023/06/02 09:16:38;;;;;;;;;;;;;;;14.56;55.04;102222.66;5020199;28;19974;-45
2023/06/02 09:19:03;;;;;;;;;;;;;;;14.79;56.45;102227.69;5014441;28;19996;-48
2023/06/02 09:21:29;;;;;;;;;;;;;;;14.82;55.95;102241.63;5015603;28;20067;-44
2023/06/02 09:23:58;;;;;;;;;;;;;;;14.89;55.79;102233.22;5016173;28;19924;-44
2023/06/02 09:26:25;;;;;;;;;;;;;;;15.02;55.21;102235.38;5019326;28;20367;-44
2023/06/02 09:29:18;;;;;;;;;;;;;;;15.25;55.32;102230.91;5014279;28;19999;-44
2023/06/02 09:31:46;;;;;;;;;;;;;;;15.41;54.90;102229.66;5015148;28;19913;-45
2023/06/02 09:34:12;;;;;;;;;;;;;;;15.39;55.50;102230.44;5021187;28;19955;-44
2023/06/02 09:36:38;;;;;;;;;;;;;;;15.41;55.05;102236.53;5020587;28;19957;-45
2023/06/02 09:39:04;;;;;;;;;;;;;;;15.55;55.33;102227.47;5016684;28;20332;-48
2023/06/02 09:41:30;;;;;;;;;;;;;;;15.60;53.91;102231.09;5017027;28;19968;-49
2023/06/02 09:43:56;;;;;;;;;;;;;;;15.67;54.29;102227.00;5019222;28;19917;-48
2023/06/02 09:46:22;;;;;;;;;;;;;;;15.62;54.56;102231.13;5018143;28;19961;-48
2023/06/02 09:48:55;;;;;;;;;;;;;;;15.36;54.71;102230.38;5016436;28;19921;-49
2023/06/02 09:51:22;;;;;;;;;;;;;;;15.10;55.35;102232.13;5019866;28;20404;-48
2023/06/02 09:53:47;;;;;;;;;;;;;;;15.07;56.02;102219.97;5015979;28;19921;-46
2023/06/02 09:56:13;;;;;;;;;;;;;;;15.27;55.70;102226.63;5013454;28;19926;-48
2023/06/02 09:58:39;;;;;;;;;;;;;;;15.36;55.85;102226.06;5014418;28;19944;-47
2023/06/02 10:01:04;;;;;;;;;;;;;;;15.57;55.46;102224.09;5014206;28;20038;-45
2023/06/02 10:03:29;;;;;;;;;;;;;;;15.64;55.25;102222.56;5010991;28;19933;-46
2023/06/02 10:06:05;;;;;;;;;;;;;;;15.73;54.98;102228.03;5019770;28;20015;-46
2023/06/02 10:08:53;;;;;;;;;;;;;;;15.65;55.28;102224.38;5016086;28;19917;-45
2023/06/02 10:11:18;;;;;;;;;;;;;;;15.60;54.99;102228.50;4996361;28;19996;-47
2023/06/02 10:14:01;;;;;;;;;;;;;;;15.86;55.42;102218.88;5016292;28;20256;-48
2023/06/02 10:16:46;;;;;;;;;;;;;;;15.86;54.93;102224.06;5017885;28;19917;-46
2023/06/02 10:19:46;;;;;;;;;;;;;;;16.17;54.91;102230.09;5017538;28;19917;-48
2023/06/02 10:22:30;;;;;;;;;;;;;;;15.96;54.61;102225.22;4977364;28;20029;-46
2023/06/02 10:25:01;;;;;;;;;;;;;;;15.73;56.21;102217.66;5012795;28;19921;-45
2023/06/02 10:27:37;;;;;;;;;;;;;;;15.73;55.78;102217.66;5017111;28;20005;-45
2023/06/02 10:30:03;;;;;;;;;;;;;;;15.91;55.27;102221.63;5014942;28;19913;-45
2023/06/02 10:32:33;;;;;;;;;;;;;;;16.18;55.64;102222.34;5011618;28;20423;-45
2023/06/02 10:34:58;;;;;;;;;;;;;;;16.46;54.73;102225.69;5010855;28;19917;-45
2023/06/02 10:37:24;;;;;;;;;;;;;;;16.56;54.47;102220.78;5011525;28;20020;-45
2023/06/02 10:39:53;;;;;;;;;;;;;;;16.59;54.13;102218.22;5021199;28;19924;-46
2023/06/02 10:42:20;;;;;;;;;;;;;;;16.68;53.76;102227.97;5019118;28;19948;-44
2023/06/02 10:44:47;;;;;;;;;;;;;;;16.43;54.89;102226.47;5015882;28;19921;-46
2023/06/02 10:47:18;;;;;;;;;;;;;;;16.38;54.83;102229.78;5016813;28;20667;-46
2023/06/02 10:50:00;;;;;;;;;;;;;;;16.42;55.02;102219.53;5014160;28;19924;-45
2023/06/02 10:52:26;;;;;;;;;;;;;;;16.32;55.02;102220.16;5014904;28;19914;-46
2023/06/02 10:55:06;;;;;;;;;;;;;;;16.29;55.63;102225.25;5012958;28;19971;-49
2023/06/02 10:57:50;;;;;;;;;;;;;;;16.49;54.98;102224.03;5020123;28;20005;-45
2023/06/02 11:00:36;;;;;;;;;;;;;;;16.66;54.60;102223.56;5013681;28;19929;-48
2023/06/02 11:03:02;;;;;;;;;;;;;;;16.59;55.11;102223.44;5020183;28;19914;-49
2023/06/02 11:05:28;;;;;;;;;;;;;;;16.55;55.24;102228.50;5011575;28;20360;-45
2023/06/02 11:08:25;;;;;;;;;;;;;;;16.50;55.30;102233.59;5014058;28;20265;-45
2023/06/02 11:10:52;;;;;;;;;;;;;;;16.56;55.29;102219.88;5025436;28;20400;-45
2023/06/02 11:13:18;;;;;;;;;;;;;;;16.54;55.35;102225.03;5014648;28;20343;-46
2023/06/02 11:15:56;;;;;;;;;;;;;;;16.48;56.00;102217.09;5013651;28;19913;-45
2023/06/02 11:18:21;;;;;;;;;;;;;;;16.68;55.94;102217.56;5015671;28;20542;-50
2023/06/02 11:20:49;;;;;;;;;;;;;;;16.86;54.49;102219.75;5014429;28;19913;-45
2023/06/02 11:23:15;;;;;;;;;;;;;;;16.75;54.53;102219.53;5013604;28;19914;-45
2023/06/02 11:25:40;;;;;;;;;;;;;;;16.59;55.33;102218.22;5016381;28;19922;-48
2023/06/02 11:28:15;;;;;;;;;;;;;;;16.67;54.65;102222.72;5012770;28;19928;-45
2023/06/02 11:30:40;;;;;;;;;;;;;;;16.41;56.02;102217.78;5019559;28;19917;-45
2023/06/02 11:33:05;;;;;;;;;;;;;;;16.53;55.78;102219.81;5012663;28;19921;-49
2023/06/02 11:35:30;;;;;;;;;;;;;;;16.55;55.41;102211.19;5011812;28;20028;-48
2023/06/02 11:38:04;;;;;;;;;;;;;;;16.44;56.32;102209.16;5012376;28;19957;-45
2023/06/02 11:40:29;;;;;;;;;;;;;;;16.59;55.74;102219.94;5019537;28;19940;-45
2023/06/02 11:42:55;;;;;;;;;;;;;;;16.49;55.84;102221.44;5015058;28;20279;-47
2023/06/02 11:45:24;;;;;;;;;;;;;;;16.63;55.83;102214.88;5017756;28;19932;-48
2023/06/02 11:48:01;;;;;;;;;;;;;;;16.73;55.60;102220.31;5021085;28;19917;-47
2023/06/02 11:50:26;;;;;;;;;;;;;;;16.86;55.21;102205.06;5027183;28;19928;-49
2023/06/02 11:52:51;;;;;;;;;;;;;;;16.95;55.12;102207.00;5026001;28;19921;-49
2023/06/02 11:55:17;;;;;;;;;;;;;;;16.97;55.35;102207.03;5025060;28;19955;-45
2023/06/02 11:57:43;;;;;;;;;;;;;;;16.92;55.45;102208.63;5022753;28;19924;-48
2023/06/02 12:00:15;;;;;;;;;;;;;;;16.97;55.69;102201.84;5019131;28;19929;-45
2023/06/02 12:02:43;;;;;;;;;;;;;;;17.04;55.06;102198.53;5013666;28;19913;-46
2023/06/02 12:05:29;;;;;;;;;;;;;;;17.06;55.12;102196.88;5013539;28;19918;-44
2023/06/02 12:07:55;;;;;;;;;;;;;;;17.15;55.21;102195.34;5012900;28;20018;-45
2023/06/02 12:10:20;;;;;;;;;;;;;;;17.01;55.18;102198.47;5016738;28;20364;-47
2023/06/02 12:12:46;;;;;;;;;;;;;;;16.95;55.15;102191.41;5021322;28;19930;-48
2023/06/02 12:15:15;;;;;;;;;;;;;;;16.91;55.66;102186.09;5018564;28;19913;-45
2023/06/02 12:17:41;;;;;;;;;;;;;;;16.88;56.07;102193.00;5014127;28;19971;-47
2023/06/02 12:20:07;;;;;;;;;;;;;;;16.99;56.54;102195.84;5013406;28;19917;-47
2023/06/02 12:22:32;;;;;;;;;;;;;;;17.32;55.64;102197.44;5016458;28;19921;-47
2023/06/02 12:25:09;;;;;;;;;;;;;;;17.59;54.92;102208.41;5025956;28;19933;-46
2023/06/02 12:27:34;;;;;;;;;;;;;;;17.64;54.31;102198.97;5018571;28;19920;-45
2023/06/02 12:30:00;;;;;;;;;;;;;;;17.76;53.84;102193.16;5017291;28;19917;-45
2023/06/02 12:32:29;;;;;;;;;;;;;;;17.88;53.96;102196.00;5015740;28;19925;-45
2023/06/02 12:34:54;;;;;;;;;;;;;;;17.94;53.84;102200.44;5013995;28;19922;-48